BAW549 LIRF-EGLL
Flight info
| Callsign | BAW549 |
|---|---|
| Flight time | 2h 15m |
| Altitude | 36000 |
| Route | NEMBO DCT GOVGO DCT SPEZI DCT OTMUV DCT AOSTA DCT ORSUD DCT MOLUS DCT GILIR DCT PENDU DCT IXILU DCT EPL DCT ROUSY DCT RITAX M624 BUB L608 LOGAN |
| Aircraft | A320/M-SDE3FGHIKRWXY/S |
Departure
| Time | 2026-05-06 17:20 |
|---|---|
| Airport | Rome–Fiumicino Leonardo da Vinci International Airport (LIRF) |
Arrival
| Time | 2026-05-06 19:36 |
|---|---|
| Airport | London Heathrow Airport (EGLL) |
| Time | Latitude | Longitude | Altitude | Speed | Heading |
|---|---|---|---|---|---|
| 2026-05-06 16:44 | 41.79818 | 12.25322 | 15 ft | 0 kts | 295° |
| 2026-05-06 17:01 | 41.79818 | 12.25323 | 14 ft | 0 kts | 295° |
| 2026-05-06 17:07 | 41.79818 | 12.25322 | 14 ft | 0 kts | 295° |
| 2026-05-06 17:08 | 41.79817 | 12.25324 | 14 ft | 2 kts | 295° |
| 2026-05-06 17:09 | 41.79807 | 12.25349 | 14 ft | 3 kts | 305° |
| 2026-05-06 17:09 | 41.79793 | 12.25370 | 15 ft | 3 kts | 330° |
| 2026-05-06 17:09 | 41.79775 | 12.25377 | 15 ft | 3 kts | 19° |
| 2026-05-06 17:09 | 41.79771 | 12.25376 | 15 ft | 0 kts | 25° |
| 2026-05-06 17:14 | 41.79776 | 12.25379 | 15 ft | 2 kts | 25° |
| 2026-05-06 17:14 | 41.79795 | 12.25391 | 16 ft | 4 kts | 25° |
| 2026-05-06 17:14 | 41.79827 | 12.25412 | 14 ft | 6 kts | 25° |
| 2026-05-06 17:14 | 41.79871 | 12.25439 | 14 ft | 8 kts | 25° |
| 2026-05-06 17:15 | 41.79919 | 12.25469 | 14 ft | 7 kts | 24° |
| 2026-05-06 17:15 | 41.79973 | 12.25463 | 16 ft | 9 kts | 324° |
| 2026-05-06 17:15 | 41.80008 | 12.25386 | 14 ft | 11 kts | 294° |
| 2026-05-06 17:15 | 41.80041 | 12.25289 | 14 ft | 12 kts | 295° |
| 2026-05-06 17:16 | 41.80103 | 12.25215 | 14 ft | 13 kts | 333° |
| 2026-05-06 17:16 | 41.80174 | 12.25137 | 14 ft | 13 kts | 317° |
| 2026-05-06 17:16 | 41.80242 | 12.25185 | 13 ft | 14 kts | 67° |
| 2026-05-06 17:16 | 41.80277 | 12.25317 | 16 ft | 16 kts | 72° |
| 2026-05-06 17:17 | 41.80314 | 12.25461 | 16 ft | 17 kts | 70° |
| 2026-05-06 17:17 | 41.80354 | 12.25609 | 15 ft | 17 kts | 70° |
| 2026-05-06 17:17 | 41.80398 | 12.25769 | 15 ft | 19 kts | 70° |
| 2026-05-06 17:17 | 41.80445 | 12.25938 | 15 ft | 20 kts | 69° |
| 2026-05-06 17:18 | 41.80496 | 12.26121 | 16 ft | 21 kts | 69° |
| 2026-05-06 17:18 | 41.80549 | 12.26314 | 18 ft | 23 kts | 70° |
| 2026-05-06 17:18 | 41.80607 | 12.26524 | 17 ft | 25 kts | 70° |
| 2026-05-06 17:18 | 41.80663 | 12.26728 | 16 ft | 22 kts | 70° |
| 2026-05-06 17:19 | 41.80710 | 12.26900 | 15 ft | 17 kts | 70° |
| 2026-05-06 17:19 | 41.80765 | 12.27028 | 13 ft | 16 kts | 32° |
| 2026-05-06 17:19 | 41.80869 | 12.27012 | 13 ft | 14 kts | 339° |
| 2026-05-06 17:19 | 41.80947 | 12.26927 | 13 ft | 18 kts | 278° |
| 2026-05-06 17:20 | 41.80840 | 12.26499 | 18 ft | 82 kts | 249° |
| 2026-05-06 17:20 | 41.80571 | 12.25528 | 16 ft | 137 kts | 249° |
| 2026-05-06 17:20 | 41.80188 | 12.24153 | 121 ft | 168 kts | 247° |
| 2026-05-06 17:20 | 41.79810 | 12.22729 | 769 ft | 163 kts | 246° |
| 2026-05-06 17:21 | 41.79425 | 12.21285 | 1279 ft | 171 kts | 250° |
| 2026-05-06 17:21 | 41.79279 | 12.19583 | 1544 ft | 197 kts | 263° |
| 2026-05-06 17:21 | 41.79222 | 12.17634 | 1750 ft | 222 kts | 263° |
| 2026-05-06 17:21 | 41.79159 | 12.15455 | 2102 ft | 246 kts | 264° |
| 2026-05-06 17:22 | 41.79095 | 12.13097 | 2762 ft | 258 kts | 264° |
| 2026-05-06 17:22 | 41.79035 | 12.10680 | 3650 ft | 261 kts | 265° |
| 2026-05-06 17:22 | 41.78989 | 12.08197 | 4574 ft | 264 kts | 266° |
| 2026-05-06 17:22 | 41.78984 | 12.05724 | 5459 ft | 266 kts | 268° |
| 2026-05-06 17:23 | 41.78991 | 12.03232 | 6356 ft | 268 kts | 268° |
| 2026-05-06 17:23 | 41.79000 | 12.00734 | 7231 ft | 269 kts | 267° |
| 2026-05-06 17:23 | 41.79007 | 11.98255 | 8058 ft | 271 kts | 268° |
| 2026-05-06 17:23 | 41.79010 | 11.95689 | 8890 ft | 273 kts | 268° |
| 2026-05-06 17:24 | 41.79009 | 11.93136 | 9716 ft | 275 kts | 268° |
| 2026-05-06 17:24 | 41.79002 | 11.90545 | 10296 ft | 286 kts | 268° |
| 2026-05-06 17:24 | 41.78988 | 11.87775 | 10479 ft | 309 kts | 268° |
| 2026-05-06 17:24 | 41.78972 | 11.84794 | 10678 ft | 329 kts | 268° |
| 2026-05-06 17:25 | 41.78958 | 11.81683 | 11220 ft | 337 kts | 268° |
| 2026-05-06 17:25 | 41.78947 | 11.78525 | 11889 ft | 342 kts | 268° |
| 2026-05-06 17:25 | 41.78935 | 11.75317 | 12575 ft | 346 kts | 268° |
| 2026-05-06 17:25 | 41.78920 | 11.72077 | 13291 ft | 350 kts | 268° |
| 2026-05-06 17:26 | 41.78902 | 11.68806 | 13959 ft | 354 kts | 268° |
| 2026-05-06 17:26 | 41.78886 | 11.65487 | 14577 ft | 357 kts | 267° |
| 2026-05-06 17:26 | 41.78869 | 11.62150 | 15167 ft | 360 kts | 267° |
| 2026-05-06 17:26 | 41.78992 | 11.58780 | 15752 ft | 366 kts | 276° |
| 2026-05-06 17:27 | 41.79637 | 11.55460 | 16347 ft | 372 kts | 288° |
| 2026-05-06 17:27 | 41.80833 | 11.52354 | 16932 ft | 380 kts | 301° |
| 2026-05-06 17:27 | 41.82515 | 11.49587 | 17530 ft | 386 kts | 308° |
| 2026-05-06 17:27 | 41.84304 | 11.46888 | 18134 ft | 389 kts | 307° |
| 2026-05-06 17:28 | 41.86099 | 11.44156 | 18657 ft | 392 kts | 307° |
| 2026-05-06 17:28 | 41.87261 | 11.42382 | 19006 ft | 393 kts | 307° |
| 2026-05-06 17:28 | 41.89122 | 11.39534 | 19601 ft | 395 kts | 307° |
| 2026-05-06 17:28 | 41.90932 | 11.36759 | 20205 ft | 397 kts | 306° |
| 2026-05-06 17:29 | 41.92753 | 11.33967 | 20796 ft | 398 kts | 306° |
| 2026-05-06 17:29 | 41.94579 | 11.31164 | 21362 ft | 399 kts | 306° |
| 2026-05-06 17:29 | 41.96412 | 11.28349 | 21911 ft | 401 kts | 306° |
| 2026-05-06 17:29 | 41.98251 | 11.25522 | 22435 ft | 402 kts | 305° |
| 2026-05-06 17:30 | 42.00094 | 11.22679 | 22937 ft | 404 kts | 305° |
| 2026-05-06 17:30 | 42.01946 | 11.19822 | 23456 ft | 406 kts | 305° |
| 2026-05-06 17:30 | 42.03805 | 11.16955 | 23875 ft | 408 kts | 305° |
| 2026-05-06 17:30 | 42.05676 | 11.14071 | 24266 ft | 410 kts | 305° |
| 2026-05-06 17:31 | 42.07554 | 11.11173 | 24650 ft | 412 kts | 304° |
| 2026-05-06 17:31 | 42.09444 | 11.08256 | 25025 ft | 414 kts | 304° |
| 2026-05-06 17:31 | 42.11340 | 11.05324 | 25388 ft | 416 kts | 304° |
| 2026-05-06 17:31 | 42.13243 | 11.02377 | 25741 ft | 418 kts | 304° |
| 2026-05-06 17:32 | 42.15159 | 10.99410 | 26084 ft | 421 kts | 304° |
| 2026-05-06 17:32 | 42.17088 | 10.96419 | 26430 ft | 423 kts | 304° |
| 2026-05-06 17:32 | 42.19016 | 10.93421 | 26774 ft | 425 kts | 304° |
| 2026-05-06 17:32 | 42.20959 | 10.90397 | 27115 ft | 427 kts | 304° |
| 2026-05-06 17:33 | 42.22688 | 10.87705 | 27420 ft | 430 kts | 304° |
| 2026-05-06 17:33 | 42.23325 | 10.86714 | 27522 ft | 430 kts | 304° |
| 2026-05-06 17:33 | 42.24229 | 10.85314 | 27677 ft | 431 kts | 304° |
| 2026-05-06 17:33 | 42.26207 | 10.82254 | 28016 ft | 435 kts | 306° |
| 2026-05-06 17:34 | 42.28433 | 10.79422 | 28339 ft | 445 kts | 315° |
| 2026-05-06 17:34 | 42.31034 | 10.77059 | 28653 ft | 457 kts | 325° |
| 2026-05-06 17:34 | 42.34004 | 10.75277 | 29022 ft | 466 kts | 334° |
| 2026-05-06 17:34 | 42.37024 | 10.73822 | 29474 ft | 465 kts | 334° |
| 2026-05-06 17:35 | 42.40068 | 10.72336 | 29934 ft | 465 kts | 333° |
| 2026-05-06 17:35 | 42.43102 | 10.70837 | 30326 ft | 464 kts | 333° |
| 2026-05-06 17:35 | 42.46130 | 10.69331 | 30723 ft | 463 kts | 333° |
| 2026-05-06 17:36 | 42.52166 | 10.66320 | 31534 ft | 461 kts | 333° |
| 2026-05-06 17:36 | 42.55174 | 10.64815 | 31949 ft | 460 kts | 333° |
| 2026-05-06 17:36 | 42.58177 | 10.63318 | 32369 ft | 459 kts | 333° |
| 2026-05-06 17:36 | 42.61174 | 10.61830 | 32779 ft | 458 kts | 333° |
| 2026-05-06 17:37 | 42.64166 | 10.60343 | 33188 ft | 458 kts | 332° |
| 2026-05-06 17:37 | 42.67161 | 10.58853 | 33600 ft | 457 kts | 332° |
| 2026-05-06 17:37 | 42.70185 | 10.57347 | 34011 ft | 456 kts | 332° |
| 2026-05-06 17:37 | 42.73161 | 10.55862 | 34301 ft | 457 kts | 332° |
| 2026-05-06 17:38 | 42.75143 | 10.54873 | 34496 ft | 458 kts | 332° |
| 2026-05-06 17:38 | 42.78136 | 10.53377 | 34786 ft | 458 kts | 332° |
| 2026-05-06 17:38 | 42.81122 | 10.51881 | 35109 ft | 457 kts | 332° |
| 2026-05-06 17:38 | 42.84094 | 10.50391 | 35437 ft | 455 kts | 332° |
| 2026-05-06 17:39 | 42.87063 | 10.48904 | 35775 ft | 454 kts | 332° |
| 2026-05-06 17:39 | 42.90027 | 10.47415 | 35914 ft | 454 kts | 332° |
| 2026-05-06 17:39 | 42.96018 | 10.44386 | 35951 ft | 462 kts | 332° |
| 2026-05-06 17:40 | 43.02057 | 10.41325 | 35934 ft | 463 kts | 332° |
| 2026-05-06 17:40 | 43.08101 | 10.38282 | 35936 ft | 463 kts | 332° |
| 2026-05-06 17:41 | 43.14148 | 10.35217 | 35939 ft | 462 kts | 330° |
| 2026-05-06 17:41 | 43.19594 | 10.30957 | 35958 ft | 444 kts | 313° |
| 2026-05-06 17:42 | 43.24195 | 10.25417 | 35942 ft | 440 kts | 310° |
| 2026-05-06 17:42 | 43.28773 | 10.19839 | 35971 ft | 440 kts | 310° |
| 2026-05-06 17:43 | 43.33355 | 10.14249 | 35965 ft | 441 kts | 310° |
| 2026-05-06 17:43 | 43.37932 | 10.08643 | 35951 ft | 441 kts | 310° |
| 2026-05-06 17:44 | 43.42511 | 10.03012 | 35953 ft | 441 kts | 310° |
| 2026-05-06 17:44 | 43.47083 | 9.97376 | 35943 ft | 441 kts | 310° |
| 2026-05-06 17:45 | 43.51652 | 9.91729 | 35943 ft | 442 kts | 310° |
| 2026-05-06 17:45 | 43.56231 | 9.86077 | 35942 ft | 442 kts | 310° |
| 2026-05-06 17:46 | 43.60806 | 9.80422 | 35968 ft | 441 kts | 310° |
| 2026-05-06 17:46 | 43.65364 | 9.74759 | 35952 ft | 441 kts | 310° |
| 2026-05-06 17:47 | 43.69925 | 9.69074 | 35945 ft | 442 kts | 310° |
| 2026-05-06 17:47 | 43.74497 | 9.63377 | 35924 ft | 442 kts | 310° |
| 2026-05-06 17:48 | 43.79056 | 9.57660 | 35933 ft | 442 kts | 309° |
| 2026-05-06 17:48 | 43.83584 | 9.51890 | 35930 ft | 442 kts | 309° |
| 2026-05-06 17:49 | 43.88082 | 9.46090 | 35964 ft | 442 kts | 309° |
| 2026-05-06 17:49 | 43.92583 | 9.40282 | 35945 ft | 442 kts | 309° |
| 2026-05-06 17:50 | 43.97092 | 9.34478 | 35928 ft | 442 kts | 309° |
| 2026-05-06 17:50 | 44.01600 | 9.28665 | 35924 ft | 442 kts | 309° |
| 2026-05-06 17:51 | 44.06110 | 9.22849 | 35928 ft | 442 kts | 309° |
| 2026-05-06 17:51 | 44.10609 | 9.17023 | 35915 ft | 442 kts | 309° |
| 2026-05-06 17:52 | 44.15104 | 9.11172 | 35911 ft | 442 kts | 309° |
| 2026-05-06 17:52 | 44.19548 | 9.05442 | 35886 ft | 445 kts | 313° |
| 2026-05-06 17:53 | 44.24537 | 9.00254 | 35881 ft | 448 kts | 315° |
| 2026-05-06 17:53 | 44.29554 | 8.95086 | 35884 ft | 449 kts | 315° |
| 2026-05-06 17:54 | 44.34573 | 8.89887 | 35900 ft | 449 kts | 315° |
| 2026-05-06 17:54 | 44.39629 | 8.84635 | 35899 ft | 450 kts | 315° |
| 2026-05-06 17:55 | 44.44649 | 8.79415 | 35903 ft | 450 kts | 315° |
| 2026-05-06 17:55 | 44.49683 | 8.74171 | 35901 ft | 450 kts | 315° |
| 2026-05-06 17:56 | 44.54706 | 8.68938 | 35887 ft | 449 kts | 315° |
| 2026-05-06 17:56 | 44.59716 | 8.63694 | 35867 ft | 449 kts | 315° |
| 2026-05-06 17:57 | 44.64709 | 8.58450 | 35847 ft | 449 kts | 315° |
| 2026-05-06 17:57 | 44.69703 | 8.53189 | 35841 ft | 449 kts | 315° |
| 2026-05-06 17:58 | 44.74708 | 8.47921 | 35840 ft | 449 kts | 315° |
| 2026-05-06 17:58 | 44.79715 | 8.42649 | 35835 ft | 449 kts | 315° |
| 2026-05-06 17:59 | 44.84714 | 8.37360 | 35857 ft | 449 kts | 315° |
| 2026-05-06 17:59 | 44.89702 | 8.32067 | 35856 ft | 448 kts | 315° |
| 2026-05-06 18:00 | 44.94685 | 8.26770 | 35838 ft | 449 kts | 315° |
| 2026-05-06 18:00 | 44.99664 | 8.21452 | 35836 ft | 449 kts | 315° |
| 2026-05-06 18:01 | 45.04657 | 8.16121 | 35850 ft | 450 kts | 315° |
| 2026-05-06 18:01 | 45.09652 | 8.10782 | 35837 ft | 450 kts | 315° |
| 2026-05-06 18:02 | 45.14642 | 8.05420 | 35853 ft | 451 kts | 316° |
| 2026-05-06 18:02 | 45.19646 | 8.00047 | 35838 ft | 452 kts | 316° |
| 2026-05-06 18:03 | 45.24657 | 7.94658 | 35835 ft | 452 kts | 316° |
| 2026-05-06 18:03 | 45.29664 | 7.89258 | 35840 ft | 452 kts | 316° |
| 2026-05-06 18:04 | 45.34707 | 7.83796 | 35857 ft | 453 kts | 315° |
| 2026-05-06 18:04 | 45.39687 | 7.78394 | 35852 ft | 453 kts | 315° |
| 2026-05-06 18:05 | 45.44731 | 7.72902 | 35862 ft | 454 kts | 316° |
| 2026-05-06 18:05 | 45.49709 | 7.67468 | 35851 ft | 454 kts | 316° |
| 2026-05-06 18:06 | 45.54728 | 7.61989 | 35871 ft | 455 kts | 316° |
| 2026-05-06 18:06 | 45.59764 | 7.56478 | 35868 ft | 455 kts | 316° |
| 2026-05-06 18:07 | 45.64781 | 7.50976 | 35871 ft | 455 kts | 316° |
| 2026-05-06 18:07 | 45.69799 | 7.45459 | 35880 ft | 455 kts | 316° |
| 2026-05-06 18:08 | 45.74812 | 7.39939 | 35914 ft | 455 kts | 316° |
| 2026-05-06 18:08 | 45.79826 | 7.34391 | 35899 ft | 456 kts | 316° |
| 2026-05-06 18:09 | 45.84961 | 7.29005 | 35881 ft | 458 kts | 319° |
| 2026-05-06 18:09 | 45.90206 | 7.23787 | 35893 ft | 460 kts | 319° |
| 2026-05-06 18:10 | 45.95453 | 7.18536 | 35906 ft | 459 kts | 319° |
| 2026-05-06 18:10 | 46.00690 | 7.13193 | 35957 ft | 460 kts | 319° |
| 2026-05-06 18:11 | 46.05012 | 7.08737 | 35956 ft | 460 kts | 319° |
| 2026-05-06 18:11 | 46.11059 | 7.02506 | 35954 ft | 460 kts | 319° |
| 2026-05-06 18:12 | 46.16267 | 6.97138 | 35962 ft | 460 kts | 319° |
| 2026-05-06 18:12 | 46.20637 | 6.92624 | 35958 ft | 461 kts | 319° |
| 2026-05-06 18:13 | 46.25843 | 6.87246 | 35958 ft | 460 kts | 319° |
| 2026-05-06 18:13 | 46.31045 | 6.81844 | 35953 ft | 460 kts | 319° |
| 2026-05-06 18:14 | 46.36240 | 6.76431 | 35960 ft | 460 kts | 320° |
| 2026-05-06 18:14 | 46.41432 | 6.71021 | 35959 ft | 460 kts | 320° |
| 2026-05-06 18:15 | 46.46906 | 6.66168 | 35952 ft | 465 kts | 330° |
| 2026-05-06 18:15 | 46.52742 | 6.62085 | 35945 ft | 466 kts | 330° |
| 2026-05-06 18:16 | 46.58574 | 6.57981 | 35946 ft | 466 kts | 330° |
| 2026-05-06 18:16 | 46.64397 | 6.53865 | 35946 ft | 466 kts | 330° |
| 2026-05-06 18:17 | 46.70224 | 6.49741 | 35967 ft | 465 kts | 330° |
| 2026-05-06 18:17 | 46.76041 | 6.45602 | 35952 ft | 465 kts | 330° |
| 2026-05-06 18:18 | 46.81851 | 6.41465 | 35965 ft | 464 kts | 330° |
| 2026-05-06 18:18 | 46.87653 | 6.37318 | 35955 ft | 464 kts | 330° |
| 2026-05-06 18:19 | 46.93456 | 6.33171 | 35955 ft | 464 kts | 331° |
| 2026-05-06 18:19 | 46.99227 | 6.29042 | 35958 ft | 464 kts | 330° |
| 2026-05-06 18:20 | 47.05058 | 6.24845 | 35957 ft | 464 kts | 331° |
| 2026-05-06 18:20 | 47.10861 | 6.20667 | 35954 ft | 464 kts | 331° |
| 2026-05-06 18:21 | 47.16665 | 6.16485 | 35963 ft | 464 kts | 331° |
| 2026-05-06 18:21 | 47.22462 | 6.12292 | 35956 ft | 464 kts | 331° |
| 2026-05-06 18:22 | 47.28259 | 6.08086 | 35955 ft | 464 kts | 331° |
| 2026-05-06 18:22 | 47.34206 | 6.04404 | 35946 ft | 467 kts | 343° |
| 2026-05-06 18:23 | 47.40678 | 6.03406 | 35941 ft | 470 kts | 359° |
| 2026-05-06 18:23 | 47.47217 | 6.03565 | 35940 ft | 470 kts | 359° |
| 2026-05-06 18:24 | 47.53765 | 6.03708 | 35929 ft | 470 kts | 359° |
| 2026-05-06 18:24 | 47.60319 | 6.03839 | 35926 ft | 470 kts | 359° |
| 2026-05-06 18:25 | 47.66863 | 6.03978 | 35927 ft | 470 kts | 359° |
| 2026-05-06 18:25 | 47.73404 | 6.04128 | 35924 ft | 470 kts | 359° |
| 2026-05-06 18:26 | 47.79946 | 6.04302 | 35923 ft | 469 kts | 360° |
| 2026-05-06 18:26 | 47.86476 | 6.04515 | 35930 ft | 469 kts | 360° |
| 2026-05-06 18:27 | 47.93007 | 6.04725 | 35927 ft | 468 kts | 360° |
| 2026-05-06 18:27 | 47.99514 | 6.04936 | 35920 ft | 468 kts | 360° |
| 2026-05-06 18:28 | 48.06025 | 6.05138 | 35915 ft | 468 kts | 360° |
| 2026-05-06 18:28 | 48.12531 | 6.05339 | 35913 ft | 467 kts | 360° |
| 2026-05-06 18:29 | 48.19035 | 6.05544 | 35911 ft | 467 kts | 360° |
| 2026-05-06 18:29 | 48.25548 | 6.05755 | 35909 ft | 468 kts | 360° |
| 2026-05-06 18:30 | 48.32070 | 6.05958 | 35912 ft | 467 kts | 0° |
| 2026-05-06 18:30 | 48.38565 | 6.06211 | 35911 ft | 467 kts | 0° |
| 2026-05-06 18:31 | 48.45063 | 6.06540 | 35911 ft | 467 kts | 1° |
| 2026-05-06 18:31 | 48.51558 | 6.06879 | 35909 ft | 467 kts | 1° |
| 2026-05-06 18:32 | 48.58052 | 6.07192 | 35920 ft | 467 kts | 1° |
| 2026-05-06 18:32 | 48.64540 | 6.07491 | 35917 ft | 466 kts | 1° |
| 2026-05-06 18:33 | 48.71028 | 6.07794 | 35914 ft | 465 kts | 1° |
| 2026-05-06 18:33 | 48.77458 | 6.08097 | 35911 ft | 465 kts | 1° |
| 2026-05-06 18:34 | 48.83928 | 6.08412 | 35904 ft | 465 kts | 1° |
| 2026-05-06 18:34 | 48.90402 | 6.08718 | 35882 ft | 465 kts | 1° |
| 2026-05-06 18:35 | 48.96868 | 6.09042 | 35881 ft | 465 kts | 1° |
| 2026-05-06 18:35 | 49.03304 | 6.08703 | 35879 ft | 461 kts | 344° |
| 2026-05-06 18:36 | 49.06284 | 6.07011 | 35884 ft | 457 kts | 331° |
| 2026-05-06 18:36 | 49.09145 | 6.04742 | 35878 ft | 457 kts | 330° |
| 2026-05-06 18:36 | 49.14791 | 6.00218 | 35890 ft | 458 kts | 330° |
| 2026-05-06 18:37 | 49.19479 | 5.96462 | 35889 ft | 458 kts | 330° |
| 2026-05-06 18:37 | 49.26086 | 5.91158 | 35890 ft | 459 kts | 330° |
| 2026-05-06 18:38 | 49.31736 | 5.86608 | 35895 ft | 459 kts | 330° |
| 2026-05-06 18:38 | 49.37312 | 5.81886 | 35902 ft | 456 kts | 321° |
| 2026-05-06 18:39 | 49.42237 | 5.75768 | 35908 ft | 455 kts | 319° |
| 2026-05-06 18:40 | 49.49561 | 5.66471 | 35907 ft | 455 kts | 319° |
| 2026-05-06 18:40 | 49.54442 | 5.60273 | 35904 ft | 455 kts | 319° |
| 2026-05-06 18:41 | 49.59323 | 5.54069 | 35918 ft | 455 kts | 319° |
| 2026-05-06 18:41 | 49.64203 | 5.47856 | 35907 ft | 455 kts | 319° |
| 2026-05-06 18:42 | 49.69067 | 5.41633 | 35919 ft | 454 kts | 319° |
| 2026-05-06 18:42 | 49.73924 | 5.35396 | 35922 ft | 454 kts | 319° |
| 2026-05-06 18:43 | 49.78769 | 5.29153 | 35924 ft | 453 kts | 319° |
| 2026-05-06 18:43 | 49.83610 | 5.22917 | 35929 ft | 452 kts | 319° |
| 2026-05-06 18:44 | 49.88450 | 5.16684 | 35932 ft | 452 kts | 319° |
| 2026-05-06 18:44 | 49.93271 | 5.10426 | 35935 ft | 452 kts | 318° |
| 2026-05-06 18:45 | 49.98082 | 5.04155 | 35932 ft | 451 kts | 319° |
| 2026-05-06 18:45 | 50.02894 | 4.97887 | 35929 ft | 451 kts | 319° |
| 2026-05-06 18:46 | 50.07696 | 4.91614 | 35936 ft | 450 kts | 319° |
| 2026-05-06 18:46 | 50.12484 | 4.85340 | 35932 ft | 450 kts | 319° |
| 2026-05-06 18:47 | 50.17270 | 4.79050 | 35935 ft | 450 kts | 318° |
| 2026-05-06 18:47 | 50.22053 | 4.72750 | 35935 ft | 450 kts | 318° |
| 2026-05-06 18:48 | 50.26058 | 4.67461 | 35931 ft | 450 kts | 318° |
| 2026-05-06 18:48 | 50.30829 | 4.61146 | 35928 ft | 450 kts | 318° |
| 2026-05-06 18:49 | 50.35604 | 4.54804 | 35950 ft | 449 kts | 318° |
| 2026-05-06 18:49 | 50.40360 | 4.48472 | 35941 ft | 449 kts | 318° |
| 2026-05-06 18:50 | 50.45115 | 4.42134 | 35952 ft | 448 kts | 318° |
| 2026-05-06 18:50 | 50.49859 | 4.35782 | 35939 ft | 448 kts | 318° |
| 2026-05-06 18:51 | 50.54595 | 4.29410 | 35943 ft | 448 kts | 318° |
| 2026-05-06 18:51 | 50.59325 | 4.23032 | 35942 ft | 448 kts | 318° |
| 2026-05-06 18:52 | 50.64060 | 4.16652 | 35947 ft | 448 kts | 318° |
| 2026-05-06 18:52 | 50.68821 | 4.10218 | 35947 ft | 448 kts | 318° |
| 2026-05-06 18:53 | 50.73542 | 4.03804 | 35954 ft | 448 kts | 317° |
| 2026-05-06 18:53 | 50.78257 | 3.97379 | 35954 ft | 448 kts | 318° |
| 2026-05-06 18:54 | 50.82967 | 3.90955 | 35954 ft | 448 kts | 317° |
| 2026-05-06 18:54 | 50.87680 | 3.84515 | 35951 ft | 447 kts | 317° |
| 2026-05-06 18:55 | 50.92383 | 3.78058 | 35951 ft | 447 kts | 317° |
| 2026-05-06 18:55 | 50.97075 | 3.71585 | 35954 ft | 447 kts | 317° |
| 2026-05-06 18:56 | 51.01758 | 3.65105 | 35952 ft | 446 kts | 317° |
| 2026-05-06 18:56 | 51.06439 | 3.58630 | 35960 ft | 446 kts | 317° |
| 2026-05-06 18:56 | 51.08422 | 3.55891 | 35817 ft | 445 kts | 317° |
| 2026-05-06 18:57 | 51.10730 | 3.52698 | 35573 ft | 444 kts | 317° |
| 2026-05-06 18:57 | 51.12837 | 3.49773 | 35346 ft | 443 kts | 317° |
| 2026-05-06 18:57 | 51.15156 | 3.46543 | 35103 ft | 442 kts | 317° |
| 2026-05-06 18:57 | 51.16870 | 3.44151 | 34922 ft | 442 kts | 317° |
| 2026-05-06 18:58 | 51.19176 | 3.40932 | 34699 ft | 441 kts | 317° |
| 2026-05-06 18:58 | 51.21485 | 3.37710 | 34457 ft | 441 kts | 317° |
| 2026-05-06 18:58 | 51.23789 | 3.34487 | 34222 ft | 440 kts | 317° |
| 2026-05-06 18:58 | 51.26085 | 3.31268 | 33991 ft | 439 kts | 317° |
| 2026-05-06 18:59 | 51.28377 | 3.28047 | 33720 ft | 438 kts | 317° |
| 2026-05-06 18:59 | 51.30663 | 3.24832 | 33447 ft | 437 kts | 317° |
| 2026-05-06 18:59 | 51.32950 | 3.21610 | 33166 ft | 439 kts | 317° |
| 2026-05-06 18:59 | 51.35241 | 3.18378 | 32879 ft | 439 kts | 317° |
| 2026-05-06 19:00 | 51.37526 | 3.15134 | 32617 ft | 439 kts | 315° |
| 2026-05-06 19:00 | 51.39349 | 3.12008 | 32384 ft | 436 kts | 307° |
| 2026-05-06 19:00 | 51.40395 | 3.09734 | 32229 ft | 437 kts | 302° |
| 2026-05-06 19:00 | 51.41262 | 3.07430 | 32084 ft | 437 kts | 297° |
| 2026-05-06 19:01 | 51.42277 | 3.03939 | 31877 ft | 434 kts | 290° |
| 2026-05-06 19:01 | 51.43332 | 2.99426 | 31616 ft | 432 kts | 289° |
| 2026-05-06 19:01 | 51.44386 | 2.94920 | 31360 ft | 431 kts | 289° |
| 2026-05-06 19:01 | 51.45442 | 2.90425 | 31102 ft | 431 kts | 290° |
| 2026-05-06 19:02 | 51.46401 | 2.86342 | 30880 ft | 429 kts | 289° |
| 2026-05-06 19:02 | 51.47106 | 2.83335 | 30710 ft | 426 kts | 289° |
| 2026-05-06 19:02 | 51.47570 | 2.81350 | 30598 ft | 425 kts | 289° |
| 2026-05-06 19:02 | 51.48195 | 2.78671 | 30440 ft | 424 kts | 289° |
| 2026-05-06 19:03 | 51.49223 | 2.74247 | 30206 ft | 422 kts | 289° |
| 2026-05-06 19:03 | 51.50242 | 2.69847 | 29948 ft | 419 kts | 289° |
| 2026-05-06 19:03 | 51.50757 | 2.67620 | 29807 ft | 418 kts | 289° |
| 2026-05-06 19:03 | 51.51179 | 2.65792 | 29680 ft | 418 kts | 289° |
| 2026-05-06 19:04 | 51.51588 | 2.64017 | 29568 ft | 418 kts | 289° |
| 2026-05-06 19:04 | 51.52008 | 2.62195 | 29447 ft | 417 kts | 289° |
| 2026-05-06 19:04 | 51.52756 | 2.58945 | 29237 ft | 416 kts | 289° |
| 2026-05-06 19:04 | 51.53141 | 2.57269 | 29124 ft | 415 kts | 289° |
| 2026-05-06 19:05 | 51.53893 | 2.53995 | 28905 ft | 414 kts | 289° |
| 2026-05-06 19:05 | 51.54885 | 2.49670 | 28653 ft | 413 kts | 289° |
| 2026-05-06 19:05 | 51.55875 | 2.45357 | 28365 ft | 410 kts | 289° |
| 2026-05-06 19:05 | 51.56857 | 2.41068 | 28085 ft | 408 kts | 289° |
| 2026-05-06 19:06 | 51.57844 | 2.36741 | 27809 ft | 406 kts | 289° |
| 2026-05-06 19:06 | 51.58811 | 2.32484 | 27540 ft | 405 kts | 289° |
| 2026-05-06 19:06 | 51.59773 | 2.28239 | 27281 ft | 403 kts | 289° |
| 2026-05-06 19:06 | 51.60733 | 2.24013 | 27008 ft | 401 kts | 289° |
| 2026-05-06 19:07 | 51.61685 | 2.19809 | 26753 ft | 399 kts | 289° |
| 2026-05-06 19:07 | 51.62632 | 2.15624 | 26492 ft | 398 kts | 289° |
| 2026-05-06 19:07 | 51.63578 | 2.11441 | 26240 ft | 397 kts | 289° |
| 2026-05-06 19:07 | 51.64519 | 2.07274 | 25985 ft | 395 kts | 289° |
| 2026-05-06 19:08 | 51.65452 | 2.03120 | 25772 ft | 394 kts | 289° |
| 2026-05-06 19:08 | 51.66384 | 1.98967 | 25525 ft | 394 kts | 289° |
| 2026-05-06 19:08 | 51.67312 | 1.94823 | 25277 ft | 392 kts | 289° |
| 2026-05-06 19:08 | 51.68230 | 1.90707 | 25057 ft | 390 kts | 289° |
| 2026-05-06 19:09 | 51.69144 | 1.86598 | 24970 ft | 389 kts | 289° |
| 2026-05-06 19:09 | 51.70057 | 1.82492 | 24992 ft | 389 kts | 289° |
| 2026-05-06 19:09 | 51.70970 | 1.78381 | 24992 ft | 389 kts | 289° |
| 2026-05-06 19:09 | 51.71879 | 1.74266 | 24997 ft | 389 kts | 289° |
| 2026-05-06 19:10 | 51.72783 | 1.70149 | 25000 ft | 389 kts | 288° |
| 2026-05-06 19:10 | 51.73686 | 1.66029 | 25000 ft | 389 kts | 287° |
| 2026-05-06 19:10 | 51.74327 | 1.61795 | 24999 ft | 388 kts | 277° |
| 2026-05-06 19:10 | 51.74484 | 1.57452 | 24986 ft | 388 kts | 268° |
| 2026-05-06 19:11 | 51.74266 | 1.53117 | 24478 ft | 384 kts | 264° |
| 2026-05-06 19:11 | 51.73993 | 1.48839 | 23955 ft | 382 kts | 264° |
| 2026-05-06 19:11 | 51.73714 | 1.44592 | 23417 ft | 379 kts | 264° |
| 2026-05-06 19:11 | 51.73432 | 1.40373 | 22805 ft | 376 kts | 264° |
| 2026-05-06 19:12 | 51.73151 | 1.36149 | 22201 ft | 372 kts | 264° |
| 2026-05-06 19:12 | 51.72879 | 1.32026 | 21616 ft | 369 kts | 264° |
| 2026-05-06 19:12 | 51.72608 | 1.27931 | 21040 ft | 366 kts | 264° |
| 2026-05-06 19:12 | 51.72338 | 1.23870 | 20475 ft | 363 kts | 264° |
| 2026-05-06 19:13 | 51.72070 | 1.19842 | 19920 ft | 360 kts | 264° |
| 2026-05-06 19:13 | 51.71802 | 1.15846 | 19376 ft | 357 kts | 264° |
| 2026-05-06 19:13 | 51.71536 | 1.11883 | 18907 ft | 355 kts | 264° |
| 2026-05-06 19:13 | 51.71270 | 1.07929 | 18527 ft | 353 kts | 264° |
| 2026-05-06 19:14 | 51.71003 | 1.04007 | 18125 ft | 351 kts | 264° |
| 2026-05-06 19:14 | 51.70735 | 1.00109 | 17688 ft | 349 kts | 264° |
| 2026-05-06 19:14 | 51.70468 | 0.96234 | 17249 ft | 347 kts | 264° |
| 2026-05-06 19:14 | 51.70201 | 0.92371 | 16825 ft | 347 kts | 264° |
| 2026-05-06 19:15 | 51.69934 | 0.88516 | 16400 ft | 345 kts | 264° |
| 2026-05-06 19:15 | 51.69668 | 0.84680 | 15986 ft | 343 kts | 264° |
| 2026-05-06 19:15 | 51.69402 | 0.80865 | 15571 ft | 342 kts | 264° |
| 2026-05-06 19:15 | 51.69135 | 0.77071 | 15179 ft | 340 kts | 264° |
| 2026-05-06 19:16 | 51.68869 | 0.73298 | 14778 ft | 338 kts | 264° |
| 2026-05-06 19:16 | 51.68603 | 0.69552 | 14387 ft | 336 kts | 264° |
| 2026-05-06 19:16 | 51.68336 | 0.65816 | 13999 ft | 335 kts | 265° |
| 2026-05-06 19:16 | 51.68069 | 0.62090 | 13591 ft | 333 kts | 265° |
| 2026-05-06 19:17 | 51.67802 | 0.58426 | 13137 ft | 322 kts | 264° |
| 2026-05-06 19:17 | 51.67544 | 0.54928 | 12728 ft | 307 kts | 264° |
| 2026-05-06 19:17 | 51.67299 | 0.51584 | 12311 ft | 295 kts | 264° |
| 2026-05-06 19:17 | 51.67062 | 0.48323 | 11902 ft | 293 kts | 264° |
| 2026-05-06 19:18 | 51.66827 | 0.45062 | 11515 ft | 293 kts | 265° |
| 2026-05-06 19:18 | 51.66594 | 0.41811 | 11137 ft | 292 kts | 265° |
| 2026-05-06 19:18 | 51.66357 | 0.38569 | 10764 ft | 291 kts | 265° |
| 2026-05-06 19:18 | 51.66117 | 0.35337 | 10396 ft | 290 kts | 265° |
| 2026-05-06 19:19 | 51.65875 | 0.32134 | 10037 ft | 283 kts | 264° |
| 2026-05-06 19:19 | 51.65643 | 0.29051 | 9650 ft | 272 kts | 264° |
| 2026-05-06 19:19 | 51.65491 | 0.27038 | 9376 ft | 265 kts | 265° |
| 2026-05-06 19:19 | 51.65272 | 0.24138 | 8978 ft | 257 kts | 264° |
| 2026-05-06 19:20 | 51.65063 | 0.21328 | 8589 ft | 249 kts | 264° |
| 2026-05-06 19:20 | 51.64898 | 0.18585 | 8219 ft | 246 kts | 266° |
| 2026-05-06 19:20 | 51.64765 | 0.15851 | 8015 ft | 243 kts | 266° |
| 2026-05-06 19:20 | 51.64642 | 0.13127 | 8017 ft | 244 kts | 266° |
| 2026-05-06 19:21 | 51.64521 | 0.10396 | 8028 ft | 244 kts | 266° |
| 2026-05-06 19:21 | 51.64400 | 0.07665 | 8024 ft | 245 kts | 266° |
| 2026-05-06 19:21 | 51.64281 | 0.04930 | 8025 ft | 245 kts | 266° |
| 2026-05-06 19:21 | 51.64161 | 0.02200 | 8030 ft | 245 kts | 266° |
| 2026-05-06 19:22 | 51.64039 | -0.00532 | 8043 ft | 244 kts | 266° |
| 2026-05-06 19:22 | 51.63907 | -0.03261 | 8038 ft | 244 kts | 267° |
| 2026-05-06 19:22 | 51.63747 | -0.05967 | 8041 ft | 242 kts | 266° |
| 2026-05-06 19:22 | 51.63574 | -0.08656 | 8044 ft | 242 kts | 266° |
| 2026-05-06 19:23 | 51.63395 | -0.11346 | 8042 ft | 243 kts | 266° |
| 2026-05-06 19:23 | 51.63227 | -0.14075 | 7688 ft | 246 kts | 266° |
| 2026-05-06 19:23 | 51.63055 | -0.16816 | 7331 ft | 243 kts | 266° |
| 2026-05-06 19:23 | 51.62893 | -0.19505 | 7070 ft | 240 kts | 266° |
| 2026-05-06 19:24 | 51.62744 | -0.22174 | 7051 ft | 240 kts | 266° |
| 2026-05-06 19:24 | 51.62591 | -0.24848 | 7059 ft | 240 kts | 266° |
| 2026-05-06 19:24 | 51.62429 | -0.27512 | 7058 ft | 240 kts | 266° |
| 2026-05-06 19:24 | 51.62270 | -0.30195 | 7053 ft | 240 kts | 266° |
| 2026-05-06 19:25 | 51.62104 | -0.32862 | 7001 ft | 239 kts | 266° |
| 2026-05-06 19:25 | 51.61940 | -0.35527 | 7004 ft | 240 kts | 266° |
| 2026-05-06 19:25 | 51.61775 | -0.38196 | 7001 ft | 240 kts | 266° |
| 2026-05-06 19:25 | 51.61617 | -0.40871 | 6998 ft | 240 kts | 266° |
| 2026-05-06 19:26 | 51.61451 | -0.43577 | 7002 ft | 240 kts | 266° |
| 2026-05-06 19:26 | 51.61291 | -0.46247 | 7005 ft | 240 kts | 266° |
| 2026-05-06 19:26 | 51.61137 | -0.48922 | 7005 ft | 240 kts | 266° |
| 2026-05-06 19:26 | 51.60981 | -0.51595 | 6999 ft | 240 kts | 266° |
| 2026-05-06 19:27 | 51.60697 | -0.54240 | 6993 ft | 241 kts | 257° |
| 2026-05-06 19:27 | 51.60269 | -0.56858 | 6769 ft | 244 kts | 257° |
| 2026-05-06 19:27 | 51.59811 | -0.59472 | 6417 ft | 240 kts | 256° |
| 2026-05-06 19:27 | 51.59458 | -0.61464 | 6133 ft | 238 kts | 256° |
| 2026-05-06 19:28 | 51.59018 | -0.64007 | 5760 ft | 233 kts | 256° |
| 2026-05-06 19:28 | 51.58593 | -0.66475 | 5393 ft | 226 kts | 256° |
| 2026-05-06 19:28 | 51.58185 | -0.68883 | 5032 ft | 220 kts | 256° |
| 2026-05-06 19:28 | 51.57799 | -0.71152 | 5010 ft | 200 kts | 256° |
| 2026-05-06 19:29 | 51.57440 | -0.73268 | 5000 ft | 194 kts | 256° |
| 2026-05-06 19:29 | 51.57079 | -0.75350 | 4981 ft | 193 kts | 256° |
| 2026-05-06 19:29 | 51.56718 | -0.77425 | 5006 ft | 192 kts | 256° |
| 2026-05-06 19:29 | 51.56346 | -0.79497 | 4770 ft | 192 kts | 256° |
| 2026-05-06 19:30 | 51.55936 | -0.81527 | 4397 ft | 192 kts | 246° |
| 2026-05-06 19:30 | 51.54987 | -0.83010 | 4052 ft | 195 kts | 204° |
| 2026-05-06 19:30 | 51.53654 | -0.83394 | 3995 ft | 196 kts | 182° |
| 2026-05-06 19:30 | 51.52332 | -0.82939 | 3977 ft | 198 kts | 154° |
| 2026-05-06 19:31 | 51.51126 | -0.81875 | 3857 ft | 197 kts | 142° |
| 2026-05-06 19:31 | 51.50077 | -0.80497 | 3725 ft | 194 kts | 136° |
| 2026-05-06 19:31 | 51.48156 | -0.77488 | 3476 ft | 192 kts | 120° |
| 2026-05-06 19:32 | 51.47663 | -0.75478 | 3387 ft | 188 kts | 96° |
| 2026-05-06 19:32 | 51.47621 | -0.73346 | 3193 ft | 186 kts | 86° |
| 2026-05-06 19:32 | 51.47634 | -0.71283 | 2950 ft | 185 kts | 86° |
| 2026-05-06 19:32 | 51.47646 | -0.69213 | 2688 ft | 174 kts | 86° |
| 2026-05-06 19:33 | 51.47654 | -0.67372 | 2476 ft | 166 kts | 86° |
| 2026-05-06 19:33 | 51.47665 | -0.65532 | 2251 ft | 164 kts | 85° |
| 2026-05-06 19:33 | 51.47676 | -0.63719 | 2029 ft | 163 kts | 86° |
| 2026-05-06 19:33 | 51.47686 | -0.61911 | 1809 ft | 161 kts | 86° |
| 2026-05-06 19:34 | 51.47695 | -0.60116 | 1579 ft | 160 kts | 86° |
| 2026-05-06 19:34 | 51.47704 | -0.58326 | 1362 ft | 160 kts | 86° |
| 2026-05-06 19:34 | 51.47712 | -0.56554 | 1136 ft | 153 kts | 86° |
| 2026-05-06 19:34 | 51.47719 | -0.54922 | 930 ft | 141 kts | 86° |
| 2026-05-06 19:35 | 51.47733 | -0.53377 | 714 ft | 137 kts | 86° |
| 2026-05-06 19:35 | 51.47737 | -0.51868 | 523 ft | 133 kts | 88° |
| 2026-05-06 19:35 | 51.47731 | -0.50374 | 342 ft | 133 kts | 87° |
| 2026-05-06 19:35 | 51.47746 | -0.48913 | 186 ft | 131 kts | 86° |
| 2026-05-06 19:36 | 51.47758 | -0.47476 | 88 ft | 115 kts | 88° |
| 2026-05-06 19:36 | 51.47757 | -0.46555 | 93 ft | 54 kts | 90° |
| 2026-05-06 19:36 | 51.47732 | -0.46193 | 89 ft | 25 kts | 124° |
| 2026-05-06 19:36 | 51.47621 | -0.46077 | 86 ft | 19 kts | 172° |
| 2026-05-06 19:37 | 51.47523 | -0.46139 | 89 ft | 12 kts | 246° |
| 2026-05-06 19:37 | 51.47513 | -0.46288 | 86 ft | 15 kts | 269° |
| 2026-05-06 19:37 | 51.47517 | -0.46470 | 86 ft | 18 kts | 270° |
| 2026-05-06 19:37 | 51.47516 | -0.46612 | 86 ft | 20 kts | 269° |
| 2026-05-06 19:38 | 51.47492 | -0.46927 | 86 ft | 24 kts | 269° |
| 2026-05-06 19:38 | 51.47492 | -0.47176 | 86 ft | 24 kts | 270° |
| 2026-05-06 19:38 | 51.47491 | -0.47429 | 86 ft | 21 kts | 270° |
| 2026-05-06 19:38 | 51.47492 | -0.47668 | 86 ft | 21 kts | 270° |
| 2026-05-06 19:39 | 51.47491 | -0.47902 | 86 ft | 19 kts | 269° |
| 2026-05-06 19:39 | 51.47490 | -0.48100 | 86 ft | 18 kts | 270° |
| 2026-05-06 19:39 | 51.47487 | -0.48281 | 88 ft | 14 kts | 263° |
| 2026-05-06 19:39 | 51.47404 | -0.48357 | 88 ft | 16 kts | 182° |
| 2026-05-06 19:40 | 51.47279 | -0.48357 | 87 ft | 19 kts | 180° |
| 2026-05-06 19:40 | 51.47136 | -0.48357 | 86 ft | 16 kts | 180° |
| 2026-05-06 19:40 | 51.47016 | -0.48356 | 87 ft | 19 kts | 179° |
| 2026-05-06 19:40 | 51.46923 | -0.48355 | 86 ft | 11 kts | 185° |
| 2026-05-06 19:41 | 51.46875 | -0.48449 | 88 ft | 13 kts | 264° |
| 2026-05-06 19:41 | 51.46876 | -0.48580 | 87 ft | 7 kts | 270° |
| 2026-05-06 19:41 | 51.46888 | -0.48636 | 86 ft | 4 kts | 329° |
| 2026-05-06 19:41 | 51.46921 | -0.48645 | 87 ft | 0 kts | 357° |